sensor_id;sensor_type;location;lat;lon;timestamp;P1;durP1;ratioP1;P2;durP2;ratioP2
15764;SDS011;7983;50.744;7.086;2024-03-22T00:01:54;10.82;;;8.02;;
15764;SDS011;7983;50.744;7.086;2024-03-22T00:04:21;10.10;;;7.63;;
15764;SDS011;7983;50.744;7.086;2024-03-22T00:06:48;9.27;;;7.30;;
15764;SDS011;7983;50.744;7.086;2024-03-22T00:09:14;10.65;;;7.70;;
15764;SDS011;7983;50.744;7.086;2024-03-22T00:11:43;9.80;;;7.15;;
15764;SDS011;7983;50.744;7.086;2024-03-22T00:14:12;9.25;;;7.13;;
15764;SDS011;7983;50.744;7.086;2024-03-22T00:16:37;9.60;;;7.03;;
15764;SDS011;7983;50.744;7.086;2024-03-22T00:19:09;10.90;;;7.28;;
15764;SDS011;7983;50.744;7.086;2024-03-22T00:21:36;9.60;;;7.40;;
15764;SDS011;7983;50.744;7.086;2024-03-22T00:24:02;8.05;;;6.53;;
15764;SDS011;7983;50.744;7.086;2024-03-22T00:26:30;9.02;;;6.65;;
15764;SDS011;7983;50.744;7.086;2024-03-22T00:29:00;9.52;;;7.15;;
15764;SDS011;7983;50.744;7.086;2024-03-22T00:31:28;8.27;;;6.43;;
15764;SDS011;7983;50.744;7.086;2024-03-22T00:33:54;8.25;;;6.25;;
15764;SDS011;7983;50.744;7.086;2024-03-22T00:36:19;9.70;;;6.82;;
15764;SDS011;7983;50.744;7.086;2024-03-22T00:38:50;9.07;;;6.50;;
15764;SDS011;7983;50.744;7.086;2024-03-22T00:41:15;10.20;;;6.65;;
15764;SDS011;7983;50.744;7.086;2024-03-22T00:43:43;9.85;;;6.63;;
15764;SDS011;7983;50.744;7.086;2024-03-22T00:46:09;8.57;;;6.55;;
15764;SDS011;7983;50.744;7.086;2024-03-22T00:48:34;9.90;;;6.68;;
15764;SDS011;7983;50.744;7.086;2024-03-22T00:51:02;9.60;;;6.25;;
15764;SDS011;7983;50.744;7.086;2024-03-22T00:53:28;8.40;;;6.13;;
15764;SDS011;7983;50.744;7.086;2024-03-22T00:55:57;9.23;;;6.53;;
15764;SDS011;7983;50.744;7.086;2024-03-22T00:58:28;9.00;;;6.22;;
15764;SDS011;7983;50.744;7.086;2024-03-22T01:00:55;10.77;;;6.20;;
15764;SDS011;7983;50.744;7.086;2024-03-22T01:03:21;7.20;;;5.90;;
15764;SDS011;7983;50.744;7.086;2024-03-22T01:05:47;8.10;;;6.15;;
15764;SDS011;7983;50.744;7.086;2024-03-22T01:08:15;9.63;;;5.78;;
15764;SDS011;7983;50.744;7.086;2024-03-22T01:10:41;6.68;;;5.50;;
15764;SDS011;7983;50.744;7.086;2024-03-22T01:13:07;7.75;;;5.53;;
15764;SDS011;7983;50.744;7.086;2024-03-22T01:15:35;7.45;;;5.53;;
15764;SDS011;7983;50.744;7.086;2024-03-22T01:18:03;7.68;;;5.85;;
15764;SDS011;7983;50.744;7.086;2024-03-22T01:20:29;8.68;;;5.50;;
15764;SDS011;7983;50.744;7.086;2024-03-22T01:22:54;6.72;;;5.35;;
15764;SDS011;7983;50.744;7.086;2024-03-22T01:25:20;6.88;;;5.50;;
15764;SDS011;7983;50.744;7.086;2024-03-22T01:27:46;8.20;;;5.80;;
15764;SDS011;7983;50.744;7.086;2024-03-22T01:30:11;7.20;;;5.13;;
15764;SDS011;7983;50.744;7.086;2024-03-22T01:32:37;7.10;;;5.25;;
15764;SDS011;7983;50.744;7.086;2024-03-22T01:35:05;7.68;;;5.90;;
15764;SDS011;7983;50.744;7.086;2024-03-22T01:37:30;6.47;;;5.60;;
15764;SDS011;7983;50.744;7.086;2024-03-22T01:39:58;9.88;;;6.47;;
15764;SDS011;7983;50.744;7.086;2024-03-22T01:42:26;8.75;;;6.18;;
15764;SDS011;7983;50.744;7.086;2024-03-22T01:44:52;9.65;;;6.72;;
15764;SDS011;7983;50.744;7.086;2024-03-22T01:47:17;8.30;;;6.30;;
15764;SDS011;7983;50.744;7.086;2024-03-22T01:49:45;8.30;;;6.35;;
15764;SDS011;7983;50.744;7.086;2024-03-22T01:52:12;9.07;;;6.55;;
15764;SDS011;7983;50.744;7.086;2024-03-22T01:54:44;8.63;;;5.97;;
15764;SDS011;7983;50.744;7.086;2024-03-22T01:57:09;8.80;;;6.30;;
15764;SDS011;7983;50.744;7.086;2024-03-22T01:59:35;7.07;;;5.43;;
15764;SDS011;7983;50.744;7.086;2024-03-22T02:02:01;7.38;;;5.88;;
15764;SDS011;7983;50.744;7.086;2024-03-22T02:04:27;6.65;;;5.35;;
15764;SDS011;7983;50.744;7.086;2024-03-22T02:06:53;7.53;;;5.28;;
15764;SDS011;7983;50.744;7.086;2024-03-22T02:09:19;7.22;;;5.25;;
15764;SDS011;7983;50.744;7.086;2024-03-22T02:11:47;7.63;;;5.22;;
15764;SDS011;7983;50.744;7.086;2024-03-22T02:14:13;7.13;;;5.18;;
15764;SDS011;7983;50.744;7.086;2024-03-22T02:16:42;8.63;;;5.18;;
15764;SDS011;7983;50.744;7.086;2024-03-22T02:19:08;8.88;;;5.18;;
15764;SDS011;7983;50.744;7.086;2024-03-22T02:21:34;7.38;;;5.18;;
15764;SDS011;7983;50.744;7.086;2024-03-22T02:24:00;7.55;;;5.28;;
15764;SDS011;7983;50.744;7.086;2024-03-22T02:26:25;8.75;;;5.75;;
15764;SDS011;7983;50.744;7.086;2024-03-22T02:28:55;7.55;;;5.22;;
15764;SDS011;7983;50.744;7.086;2024-03-22T02:31:21;7.57;;;5.40;;
15764;SDS011;7983;50.744;7.086;2024-03-22T02:33:50;7.70;;;5.45;;
15764;SDS011;7983;50.744;7.086;2024-03-22T02:36:16;7.78;;;5.70;;
15764;SDS011;7983;50.744;7.086;2024-03-22T02:38:42;7.38;;;5.32;;
15764;SDS011;7983;50.744;7.086;2024-03-22T02:41:08;6.13;;;4.93;;
15764;SDS011;7983;50.744;7.086;2024-03-22T02:43:33;8.02;;;5.75;;
15764;SDS011;7983;50.744;7.086;2024-03-22T02:46:01;5.85;;;5.10;;
15764;SDS011;7983;50.744;7.086;2024-03-22T02:48:27;6.88;;;5.43;;
15764;SDS011;7983;50.744;7.086;2024-03-22T02:50:56;6.35;;;5.38;;
15764;SDS011;7983;50.744;7.086;2024-03-22T02:53:24;7.28;;;5.45;;
15764;SDS011;7983;50.744;7.086;2024-03-22T02:55:52;6.82;;;5.03;;
15764;SDS011;7983;50.744;7.086;2024-03-22T02:58:19;6.85;;;5.10;;
15764;SDS011;7983;50.744;7.086;2024-03-22T03:00:46;6.65;;;5.07;;
15764;SDS011;7983;50.744;7.086;2024-03-22T03:03:14;8.15;;;5.32;;
15764;SDS011;7983;50.744;7.086;2024-03-22T03:05:41;7.53;;;5.30;;
15764;SDS011;7983;50.744;7.086;2024-03-22T03:08:09;6.78;;;5.05;;
15764;SDS011;7983;50.744;7.086;2024-03-22T03:10:35;7.55;;;5.05;;
15764;SDS011;7983;50.744;7.086;2024-03-22T03:13:03;7.40;;;5.00;;
15764;SDS011;7983;50.744;7.086;2024-03-22T03:15:29;7.80;;;5.38;;
15764;SDS011;7983;50.744;7.086;2024-03-22T03:17:54;7.60;;;5.25;;
15764;SDS011;7983;50.744;7.086;2024-03-22T03:20:22;6.10;;;4.75;;
15764;SDS011;7983;50.744;7.086;2024-03-22T03:22:48;7.07;;;4.88;;
15764;SDS011;7983;50.744;7.086;2024-03-22T03:25:13;8.13;;;4.93;;
15764;SDS011;7983;50.744;7.086;2024-03-22T03:27:39;6.50;;;5.03;;
15764;SDS011;7983;50.744;7.086;2024-03-22T03:30:07;7.90;;;5.18;;
15764;SDS011;7983;50.744;7.086;2024-03-22T03:32:33;6.82;;;4.88;;
15764;SDS011;7983;50.744;7.086;2024-03-22T03:34:58;7.88;;;5.22;;
15764;SDS011;7983;50.744;7.086;2024-03-22T03:37:24;6.43;;;4.75;;
15764;SDS011;7983;50.744;7.086;2024-03-22T03:39:49;7.32;;;5.05;;
15764;SDS011;7983;50.744;7.086;2024-03-22T03:42:15;5.85;;;4.82;;
15764;SDS011;7983;50.744;7.086;2024-03-22T03:44:41;8.00;;;5.22;;
15764;SDS011;7983;50.744;7.086;2024-03-22T03:47:07;9.32;;;5.25;;
15764;SDS011;7983;50.744;7.086;2024-03-22T03:49:35;6.97;;;4.78;;
15764;SDS011;7983;50.744;7.086;2024-03-22T03:52:03;6.90;;;4.97;;
15764;SDS011;7983;50.744;7.086;2024-03-22T03:54:29;6.60;;;5.13;;
15764;SDS011;7983;50.744;7.086;2024-03-22T03:56:54;7.65;;;5.40;;
15764;SDS011;7983;50.744;7.086;2024-03-22T03:59:24;6.53;;;4.93;;
15764;SDS011;7983;50.744;7.086;2024-03-22T04:01:52;7.80;;;5.90;;
15764;SDS011;7983;50.744;7.086;2024-03-22T04:04:18;7.88;;;5.65;;
15764;SDS011;7983;50.744;7.086;2024-03-22T04:06:44;8.70;;;5.90;;
15764;SDS011;7983;50.744;7.086;2024-03-22T04:09:09;7.93;;;5.72;;
15764;SDS011;7983;50.744;7.086;2024-03-22T04:11:35;9.18;;;6.22;;
15764;SDS011;7983;50.744;7.086;2024-03-22T04:14:02;9.13;;;5.82;;
15764;SDS011;7983;50.744;7.086;2024-03-22T04:16:28;7.72;;;6.07;;
15764;SDS011;7983;50.744;7.086;2024-03-22T04:18:56;9.40;;;6.20;;
15764;SDS011;7983;50.744;7.086;2024-03-22T04:21:21;8.00;;;5.60;;
15764;SDS011;7983;50.744;7.086;2024-03-22T04:23:47;7.60;;;6.05;;
15764;SDS011;7983;50.744;7.086;2024-03-22T04:26:13;7.70;;;6.10;;
15764;SDS011;7983;50.744;7.086;2024-03-22T04:28:39;7.78;;;5.97;;
15764;SDS011;7983;50.744;7.086;2024-03-22T04:31:05;7.03;;;5.50;;
15764;SDS011;7983;50.744;7.086;2024-03-22T04:33:33;7.55;;;5.72;;
15764;SDS011;7983;50.744;7.086;2024-03-22T04:36:00;7.85;;;5.78;;
15764;SDS011;7983;50.744;7.086;2024-03-22T04:38:26;8.07;;;5.90;;
15764;SDS011;7983;50.744;7.086;2024-03-22T04:40:52;6.45;;;5.32;;
15764;SDS011;7983;50.744;7.086;2024-03-22T04:43:19;8.98;;;6.07;;
15764;SDS011;7983;50.744;7.086;2024-03-22T04:45:47;8.25;;;5.68;;
15764;SDS011;7983;50.744;7.086;2024-03-22T04:48:18;6.53;;;5.13;;
15764;SDS011;7983;50.744;7.086;2024-03-22T04:50:45;8.10;;;5.32;;
15764;SDS011;7983;50.744;7.086;2024-03-22T04:53:17;7.30;;;4.78;;
15764;SDS011;7983;50.744;7.086;2024-03-22T04:55:44;7.28;;;4.82;;
15764;SDS011;7983;50.744;7.086;2024-03-22T04:58:17;5.63;;;4.63;;
15764;SDS011;7983;50.744;7.086;2024-03-22T05:00:55;6.95;;;4.55;;
15764;SDS011;7983;50.744;7.086;2024-03-22T05:03:24;6.25;;;4.53;;
15764;SDS011;7983;50.744;7.086;2024-03-22T05:05:52;6.32;;;4.40;;
15764;SDS011;7983;50.744;7.086;2024-03-22T05:08:18;5.97;;;4.45;;
15764;SDS011;7983;50.744;7.086;2024-03-22T05:10:45;6.90;;;4.65;;
15764;SDS011;7983;50.744;7.086;2024-03-22T05:13:11;6.20;;;4.22;;
15764;SDS011;7983;50.744;7.086;2024-03-22T05:15:39;6.75;;;4.72;;
15764;SDS011;7983;50.744;7.086;2024-03-22T05:18:04;5.47;;;4.38;;
15764;SDS011;7983;50.744;7.086;2024-03-22T05:20:30;7.45;;;5.30;;
15764;SDS011;7983;50.744;7.086;2024-03-22T05:22:58;7.03;;;5.25;;
15764;SDS011;7983;50.744;7.086;2024-03-22T05:25:24;6.22;;;4.75;;
15764;SDS011;7983;50.744;7.086;2024-03-22T05:27:50;7.38;;;5.50;;
15764;SDS011;7983;50.744;7.086;2024-03-22T05:30:18;6.28;;;4.65;;
15764;SDS011;7983;50.744;7.086;2024-03-22T05:32:44;6.95;;;4.45;;
15764;SDS011;7983;50.744;7.086;2024-03-22T05:35:10;5.82;;;4.75;;
15764;SDS011;7983;50.744;7.086;2024-03-22T05:37:35;7.10;;;5.13;;
15764;SDS011;7983;50.744;7.086;2024-03-22T05:40:01;5.65;;;4.40;;
15764;SDS011;7983;50.744;7.086;2024-03-22T05:42:29;6.40;;;4.10;;
15764;SDS011;7983;50.744;7.086;2024-03-22T05:44:57;6.50;;;4.25;;
15764;SDS011;7983;50.744;7.086;2024-03-22T05:47:23;6.07;;;4.30;;
15764;SDS011;7983;50.744;7.086;2024-03-22T05:49:48;7.28;;;4.07;;
15764;SDS011;7983;50.744;7.086;2024-03-22T05:52:14;5.50;;;4.13;;
15764;SDS011;7983;50.744;7.086;2024-03-22T05:54:39;6.40;;;4.18;;
15764;SDS011;7983;50.744;7.086;2024-03-22T05:57:05;6.22;;;4.72;;
15764;SDS011;7983;50.744;7.086;2024-03-22T05:59:34;6.20;;;4.80;;
15764;SDS011;7983;50.744;7.086;2024-03-22T06:02:00;7.82;;;5.30;;
15764;SDS011;7983;50.744;7.086;2024-03-22T06:04:26;6.30;;;4.68;;
15764;SDS011;7983;50.744;7.086;2024-03-22T06:06:51;7.10;;;4.85;;
15764;SDS011;7983;50.744;7.086;2024-03-22T06:09:17;6.65;;;4.38;;
15764;SDS011;7983;50.744;7.086;2024-03-22T06:12:04;6.22;;;4.07;;
15764;SDS011;7983;50.744;7.086;2024-03-22T06:14:30;6.53;;;4.20;;
15764;SDS011;7983;50.744;7.086;2024-03-22T06:16:58;7.07;;;4.70;;
15764;SDS011;7983;50.744;7.086;2024-03-22T06:19:24;5.82;;;4.20;;
15764;SDS011;7983;50.744;7.086;2024-03-22T06:21:49;5.30;;;4.05;;
15764;SDS011;7983;50.744;7.086;2024-03-22T06:24:19;6.95;;;4.47;;
15764;SDS011;7983;50.744;7.086;2024-03-22T06:26:47;6.22;;;4.20;;
15764;SDS011;7983;50.744;7.086;2024-03-22T06:29:14;6.63;;;4.45;;
15764;SDS011;7983;50.744;7.086;2024-03-22T06:31:41;6.50;;;4.15;;
15764;SDS011;7983;50.744;7.086;2024-03-22T06:34:09;6.97;;;4.57;;
15764;SDS011;7983;50.744;7.086;2024-03-22T06:36:37;5.53;;;4.10;;
15764;SDS011;7983;50.744;7.086;2024-03-22T06:39:03;5.78;;;4.03;;
15764;SDS011;7983;50.744;7.086;2024-03-22T06:41:31;5.82;;;4.25;;
15764;SDS011;7983;50.744;7.086;2024-03-22T06:43:58;6.72;;;4.05;;
15764;SDS011;7983;50.744;7.086;2024-03-22T06:46:25;6.00;;;4.05;;
15764;SDS011;7983;50.744;7.086;2024-03-22T06:48:51;5.90;;;4.13;;
15764;SDS011;7983;50.744;7.086;2024-03-22T06:51:17;5.85;;;4.60;;
15764;SDS011;7983;50.744;7.086;2024-03-22T06:53:43;6.25;;;4.30;;
15764;SDS011;7983;50.744;7.086;2024-03-22T06:56:10;5.70;;;3.88;;
15764;SDS011;7983;50.744;7.086;2024-03-22T06:58:36;5.93;;;4.22;;
15764;SDS011;7983;50.744;7.086;2024-03-22T07:01:03;5.18;;;4.00;;
15764;SDS011;7983;50.744;7.086;2024-03-22T07:03:29;5.88;;;3.97;;
15764;SDS011;7983;50.744;7.086;2024-03-22T07:05:55;6.40;;;3.92;;
15764;SDS011;7983;50.744;7.086;2024-03-22T07:08:21;5.40;;;3.55;;
15764;SDS011;7983;50.744;7.086;2024-03-22T07:10:46;5.18;;;3.78;;
15764;SDS011;7983;50.744;7.086;2024-03-22T07:13:14;5.85;;;3.63;;
15764;SDS011;7983;50.744;7.086;2024-03-22T07:15:40;4.53;;;3.72;;
15764;SDS011;7983;50.744;7.086;2024-03-22T07:18:05;5.25;;;3.90;;
15764;SDS011;7983;50.744;7.086;2024-03-22T07:20:31;4.50;;;3.63;;
15764;SDS011;7983;50.744;7.086;2024-03-22T07:22:56;7.25;;;4.43;;
15764;SDS011;7983;50.744;7.086;2024-03-22T07:25:29;6.68;;;4.78;;
15764;SDS011;7983;50.744;7.086;2024-03-22T07:27:55;6.55;;;5.18;;
15764;SDS011;7983;50.744;7.086;2024-03-22T07:30:21;5.85;;;4.60;;
15764;SDS011;7983;50.744;7.086;2024-03-22T07:32:47;7.70;;;4.93;;
15764;SDS011;7983;50.744;7.086;2024-03-22T07:35:14;7.88;;;5.80;;
15764;SDS011;7983;50.744;7.086;2024-03-22T07:37:42;8.13;;;4.50;;
15764;SDS011;7983;50.744;7.086;2024-03-22T07:40:08;8.23;;;5.00;;
15764;SDS011;7983;50.744;7.086;2024-03-22T07:42:34;7.35;;;4.82;;
15764;SDS011;7983;50.744;7.086;2024-03-22T07:45:00;6.78;;;4.95;;
15764;SDS011;7983;50.744;7.086;2024-03-22T07:47:26;6.13;;;4.65;;
15764;SDS011;7983;50.744;7.086;2024-03-22T07:49:51;8.32;;;5.43;;
15764;SDS011;7983;50.744;7.086;2024-03-22T07:52:19;8.93;;;5.75;;
15764;SDS011;7983;50.744;7.086;2024-03-22T07:54:45;7.03;;;4.75;;
15764;SDS011;7983;50.744;7.086;2024-03-22T07:57:10;6.78;;;4.60;;
15764;SDS011;7983;50.744;7.086;2024-03-22T07:59:36;7.38;;;5.03;;
15764;SDS011;7983;50.744;7.086;2024-03-22T08:02:02;9.32;;;6.65;;
15764;SDS011;7983;50.744;7.086;2024-03-22T08:04:28;8.93;;;6.50;;
15764;SDS011;7983;50.744;7.086;2024-03-22T08:06:54;7.90;;;6.07;;
15764;SDS011;7983;50.744;7.086;2024-03-22T08:09:19;8.80;;;5.75;;
15764;SDS011;7983;50.744;7.086;2024-03-22T08:11:45;7.65;;;5.97;;
15764;SDS011;7983;50.744;7.086;2024-03-22T08:14:11;16.70;;;11.18;;
15764;SDS011;7983;50.744;7.086;2024-03-22T08:16:36;11.05;;;7.95;;
15764;SDS011;7983;50.744;7.086;2024-03-22T08:19:04;10.55;;;7.07;;
15764;SDS011;7983;50.744;7.086;2024-03-22T08:21:30;10.18;;;7.53;;
15764;SDS011;7983;50.744;7.086;2024-03-22T08:23:57;9.27;;;6.28;;
15764;SDS011;7983;50.744;7.086;2024-03-22T08:26:26;8.50;;;6.40;;
15764;SDS011;7983;50.744;7.086;2024-03-22T08:28:51;7.40;;;5.68;;
15764;SDS011;7983;50.744;7.086;2024-03-22T08:31:17;8.50;;;5.57;;
15764;SDS011;7983;50.744;7.086;2024-03-22T08:33:47;7.15;;;5.85;;
15764;SDS011;7983;50.744;7.086;2024-03-22T08:36:13;10.35;;;6.57;;
15764;SDS011;7983;50.744;7.086;2024-03-22T08:38:39;7.95;;;6.20;;
15764;SDS011;7983;50.744;7.086;2024-03-22T08:41:06;9.13;;;7.57;;
15764;SDS011;7983;50.744;7.086;2024-03-22T08:43:32;10.68;;;8.20;;
15764;SDS011;7983;50.744;7.086;2024-03-22T08:46:00;11.73;;;9.30;;
15764;SDS011;7983;50.744;7.086;2024-03-22T08:48:25;11.32;;;9.20;;
15764;SDS011;7983;50.744;7.086;2024-03-22T08:50:53;11.65;;;8.50;;
15764;SDS011;7983;50.744;7.086;2024-03-22T08:53:21;12.07;;;8.38;;
15764;SDS011;7983;50.744;7.086;2024-03-22T08:55:47;11.15;;;8.88;;
15764;SDS011;7983;50.744;7.086;2024-03-22T08:58:15;12.75;;;8.45;;
15764;SDS011;7983;50.744;7.086;2024-03-22T09:00:44;10.50;;;7.93;;
15764;SDS011;7983;50.744;7.086;2024-03-22T09:03:10;10.80;;;7.90;;
15764;SDS011;7983;50.744;7.086;2024-03-22T09:05:36;9.20;;;7.65;;
15764;SDS011;7983;50.744;7.086;2024-03-22T09:08:02;11.73;;;7.82;;
15764;SDS011;7983;50.744;7.086;2024-03-22T09:10:28;11.75;;;7.97;;
15764;SDS011;7983;50.744;7.086;2024-03-22T09:12:57;11.82;;;7.95;;
15764;SDS011;7983;50.744;7.086;2024-03-22T09:15:22;11.23;;;8.68;;
15764;SDS011;7983;50.744;7.086;2024-03-22T09:17:49;9.38;;;7.35;;
15764;SDS011;7983;50.744;7.086;2024-03-22T09:20:16;9.32;;;7.35;;
15764;SDS011;7983;50.744;7.086;2024-03-22T09:22:44;10.05;;;7.20;;
15764;SDS011;7983;50.744;7.086;2024-03-22T09:25:14;10.35;;;8.45;;
15764;SDS011;7983;50.744;7.086;2024-03-22T09:27:40;11.63;;;8.38;;
15764;SDS011;7983;50.744;7.086;2024-03-22T09:30:07;10.43;;;7.78;;
15764;SDS011;7983;50.744;7.086;2024-03-22T09:32:33;11.25;;;7.97;;
15764;SDS011;7983;50.744;7.086;2024-03-22T09:35:00;11.48;;;8.40;;
15764;SDS011;7983;50.744;7.086;2024-03-22T09:37:28;10.70;;;7.85;;
15764;SDS011;7983;50.744;7.086;2024-03-22T09:39:54;11.73;;;8.15;;
15764;SDS011;7983;50.744;7.086;2024-03-22T09:42:19;11.60;;;8.30;;
15764;SDS011;7983;50.744;7.086;2024-03-22T09:44:50;10.55;;;8.07;;
15764;SDS011;7983;50.744;7.086;2024-03-22T09:47:16;12.85;;;8.80;;
15764;SDS011;7983;50.744;7.086;2024-03-22T09:49:49;10.88;;;7.95;;
15764;SDS011;7983;50.744;7.086;2024-03-22T09:52:15;9.68;;;7.57;;
15764;SDS011;7983;50.744;7.086;2024-03-22T09:54:47;12.57;;;8.80;;
15764;SDS011;7983;50.744;7.086;2024-03-22T09:57:15;12.27;;;9.18;;
15764;SDS011;7983;50.744;7.086;2024-03-22T09:59:43;11.55;;;8.35;;
15764;SDS011;7983;50.744;7.086;2024-03-22T10:02:10;11.80;;;8.85;;
15764;SDS011;7983;50.744;7.086;2024-03-22T10:04:40;9.38;;;7.97;;
15764;SDS011;7983;50.744;7.086;2024-03-22T10:07:08;11.82;;;9.02;;
15764;SDS011;7983;50.744;7.086;2024-03-22T10:09:38;11.93;;;8.32;;
15764;SDS011;7983;50.744;7.086;2024-03-22T10:12:04;11.55;;;7.82;;
15764;SDS011;7983;50.744;7.086;2024-03-22T10:14:30;11.57;;;8.05;;
15764;SDS011;7983;50.744;7.086;2024-03-22T10:16:57;11.43;;;8.20;;
15764;SDS011;7983;50.744;7.086;2024-03-22T10:19:23;9.05;;;7.53;;
15764;SDS011;7983;50.744;7.086;2024-03-22T10:24:26;9.38;;;6.43;;
15764;SDS011;7983;50.744;7.086;2024-03-22T10:26:54;10.55;;;7.40;;
15764;SDS011;7983;50.744;7.086;2024-03-22T10:29:22;10.73;;;7.30;;
15764;SDS011;7983;50.744;7.086;2024-03-22T10:31:50;9.15;;;6.88;;
15764;SDS011;7983;50.744;7.086;2024-03-22T10:34:22;8.00;;;6.20;;
15764;SDS011;7983;50.744;7.086;2024-03-22T10:36:53;9.13;;;6.22;;
15764;SDS011;7983;50.744;7.086;2024-03-22T10:39:22;8.95;;;5.75;;
15764;SDS011;7983;50.744;7.086;2024-03-22T10:41:49;7.13;;;5.05;;
15764;SDS011;7983;50.744;7.086;2024-03-22T10:44:18;6.10;;;4.95;;
15764;SDS011;7983;50.744;7.086;2024-03-22T10:46:44;8.27;;;5.03;;
15764;SDS011;7983;50.744;7.086;2024-03-22T10:49:16;7.05;;;4.80;;
15764;SDS011;7983;50.744;7.086;2024-03-22T10:51:49;6.03;;;4.00;;
15764;SDS011;7983;50.744;7.086;2024-03-22T10:54:24;5.50;;;3.85;;
15764;SDS011;7983;50.744;7.086;2024-03-22T10:56:58;5.15;;;4.07;;
15764;SDS011;7983;50.744;7.086;2024-03-22T10:59:24;6.75;;;4.95;;
15764;SDS011;7983;50.744;7.086;2024-03-22T11:02:02;7.93;;;4.70;;
15764;SDS011;7983;50.744;7.086;2024-03-22T11:04:29;7.95;;;5.15;;
15764;SDS011;7983;50.744;7.086;2024-03-22T11:06:56;7.20;;;5.10;;
15764;SDS011;7983;50.744;7.086;2024-03-22T11:09:28;7.43;;;5.18;;
15764;SDS011;7983;50.744;7.086;2024-03-22T11:11:56;8.20;;;4.70;;
15764;SDS011;7983;50.744;7.086;2024-03-22T11:14:24;7.72;;;5.28;;
15764;SDS011;7983;50.744;7.086;2024-03-22T11:16:53;7.43;;;5.30;;
15764;SDS011;7983;50.744;7.086;2024-03-22T11:19:21;5.63;;;4.38;;
15764;SDS011;7983;50.744;7.086;2024-03-22T11:21:49;5.97;;;3.80;;
15764;SDS011;7983;50.744;7.086;2024-03-22T11:24:16;5.60;;;4.15;;
15764;SDS011;7983;50.744;7.086;2024-03-22T11:26:42;5.45;;;3.95;;
15764;SDS011;7983;50.744;7.086;2024-03-22T11:29:09;5.35;;;3.92;;
15764;SDS011;7983;50.744;7.086;2024-03-22T11:31:34;5.80;;;3.88;;
15764;SDS011;7983;50.744;7.086;2024-03-22T11:34:02;4.90;;;3.50;;
15764;SDS011;7983;50.744;7.086;2024-03-22T11:36:27;4.28;;;3.25;;
15764;SDS011;7983;50.744;7.086;2024-03-22T11:38:54;5.13;;;3.15;;
15764;SDS011;7983;50.744;7.086;2024-03-22T11:41:21;6.10;;;3.30;;
15764;SDS011;7983;50.744;7.086;2024-03-22T11:43:51;4.38;;;3.10;;
15764;SDS011;7983;50.744;7.086;2024-03-22T11:46:18;3.13;;;2.40;;
15764;SDS011;7983;50.744;7.086;2024-03-22T11:48:50;5.75;;;3.13;;
15764;SDS011;7983;50.744;7.086;2024-03-22T11:51:16;4.45;;;3.00;;
15764;SDS011;7983;50.744;7.086;2024-03-22T11:53:51;4.28;;;2.60;;
15764;SDS011;7983;50.744;7.086;2024-03-22T11:56:20;5.13;;;3.03;;
15764;SDS011;7983;50.744;7.086;2024-03-22T11:58:47;4.03;;;2.28;;
15764;SDS011;7983;50.744;7.086;2024-03-22T12:01:14;4.18;;;2.60;;
15764;SDS011;7983;50.744;7.086;2024-03-22T12:03:43;4.53;;;2.45;;
15764;SDS011;7983;50.744;7.086;2024-03-22T12:06:09;3.17;;;2.40;;
15764;SDS011;7983;50.744;7.086;2024-03-22T12:08:36;3.90;;;2.75;;
15764;SDS011;7983;50.744;7.086;2024-03-22T12:11:06;4.63;;;2.90;;
15764;SDS011;7983;50.744;7.086;2024-03-22T12:13:32;4.20;;;2.72;;
15764;SDS011;7983;50.744;7.086;2024-03-22T12:16:00;6.10;;;3.15;;
15764;SDS011;7983;50.744;7.086;2024-03-22T12:18:27;3.33;;;2.85;;
15764;SDS011;7983;50.744;7.086;2024-03-22T12:20:52;4.80;;;2.92;;
15764;SDS011;7983;50.744;7.086;2024-03-22T12:23:23;3.22;;;2.70;;
15764;SDS011;7983;50.744;7.086;2024-03-22T12:25:51;3.30;;;2.30;;
15764;SDS011;7983;50.744;7.086;2024-03-22T12:28:21;4.13;;;2.45;;
15764;SDS011;7983;50.744;7.086;2024-03-22T12:30:47;3.60;;;2.25;;
15764;SDS011;7983;50.744;7.086;2024-03-22T12:33:14;2.85;;;2.20;;
15764;SDS011;7983;50.744;7.086;2024-03-22T12:35:40;3.20;;;2.28;;
15764;SDS011;7983;50.744;7.086;2024-03-22T12:38:09;3.03;;;2.15;;
15764;SDS011;7983;50.744;7.086;2024-03-22T12:40:39;3.45;;;2.17;;
15764;SDS011;7983;50.744;7.086;2024-03-22T12:43:05;2.72;;;2.20;;
15764;SDS011;7983;50.744;7.086;2024-03-22T12:45:31;3.65;;;1.90;;
15764;SDS011;7983;50.744;7.086;2024-03-22T12:48:00;3.47;;;2.00;;
15764;SDS011;7983;50.744;7.086;2024-03-22T12:50:26;4.13;;;1.98;;
15764;SDS011;7983;50.744;7.086;2024-03-22T12:52:57;1.80;;;1.55;;
15764;SDS011;7983;50.744;7.086;2024-03-22T12:55:23;3.47;;;1.95;;
15764;SDS011;7983;50.744;7.086;2024-03-22T12:57:53;4.05;;;2.30;;
15764;SDS011;7983;50.744;7.086;2024-03-22T13:00:19;4.43;;;2.50;;
15764;SDS011;7983;50.744;7.086;2024-03-22T13:02:45;3.22;;;2.40;;
15764;SDS011;7983;50.744;7.086;2024-03-22T13:05:11;5.35;;;2.63;;
15764;SDS011;7983;50.744;7.086;2024-03-22T13:07:42;4.35;;;2.40;;
15764;SDS011;7983;50.744;7.086;2024-03-22T13:10:08;2.80;;;2.03;;
15764;SDS011;7983;50.744;7.086;2024-03-22T13:12:34;3.47;;;1.92;;
15764;SDS011;7983;50.744;7.086;2024-03-22T13:15:00;2.38;;;2.00;;
15764;SDS011;7983;50.744;7.086;2024-03-22T13:17:26;3.20;;;1.90;;
15764;SDS011;7983;50.744;7.086;2024-03-22T13:19:52;2.92;;;1.70;;
15764;SDS011;7983;50.744;7.086;2024-03-22T13:22:20;2.53;;;1.38;;
15764;SDS011;7983;50.744;7.086;2024-03-22T13:24:48;2.40;;;1.50;;
15764;SDS011;7983;50.744;7.086;2024-03-22T13:27:15;2.28;;;1.50;;
15764;SDS011;7983;50.744;7.086;2024-03-22T13:29:41;2.72;;;1.48;;
15764;SDS011;7983;50.744;7.086;2024-03-22T13:32:07;1.60;;;1.48;;
15764;SDS011;7983;50.744;7.086;2024-03-22T13:34:36;2.72;;;1.60;;
15764;SDS011;7983;50.744;7.086;2024-03-22T13:37:02;2.67;;;1.70;;
15764;SDS011;7983;50.744;7.086;2024-03-22T13:39:28;3.25;;;1.88;;
15764;SDS011;7983;50.744;7.086;2024-03-22T13:41:56;2.10;;;1.77;;
15764;SDS011;7983;50.744;7.086;2024-03-22T13:44:25;2.65;;;1.77;;
15764;SDS011;7983;50.744;7.086;2024-03-22T13:46:54;3.55;;;1.70;;
15764;SDS011;7983;50.744;7.086;2024-03-22T13:49:20;2.67;;;1.73;;
15764;SDS011;7983;50.744;7.086;2024-03-22T13:51:48;1.85;;;1.40;;
15764;SDS011;7983;50.744;7.086;2024-03-22T13:54:14;1.58;;;1.27;;
15764;SDS011;7983;50.744;7.086;2024-03-22T13:56:40;1.95;;;1.50;;
15764;SDS011;7983;50.744;7.086;2024-03-22T13:59:08;2.33;;;1.55;;
15764;SDS011;7983;50.744;7.086;2024-03-22T14:01:35;2.20;;;1.30;;
15764;SDS011;7983;50.744;7.086;2024-03-22T14:04:01;3.08;;;1.20;;
15764;SDS011;7983;50.744;7.086;2024-03-22T14:06:28;1.75;;;1.30;;
15764;SDS011;7983;50.744;7.086;2024-03-22T14:08:57;1.80;;;1.10;;
15764;SDS011;7983;50.744;7.086;2024-03-22T14:11:27;2.63;;;1.45;;
15764;SDS011;7983;50.744;7.086;2024-03-22T14:13:55;1.67;;;1.35;;
15764;SDS011;7983;50.744;7.086;2024-03-22T14:16:24;1.95;;;1.38;;
15764;SDS011;7983;50.744;7.086;2024-03-22T14:18:50;2.35;;;1.40;;
15764;SDS011;7983;50.744;7.086;2024-03-22T14:21:16;1.90;;;1.55;;
15764;SDS011;7983;50.744;7.086;2024-03-22T14:23:50;2.05;;;1.50;;
15764;SDS011;7983;50.744;7.086;2024-03-22T14:26:18;1.80;;;1.38;;
15764;SDS011;7983;50.744;7.086;2024-03-22T14:28:44;2.40;;;1.30;;
15764;SDS011;7983;50.744;7.086;2024-03-22T14:31:13;2.42;;;1.27;;
15764;SDS011;7983;50.744;7.086;2024-03-22T14:33:39;2.10;;;1.60;;
15764;SDS011;7983;50.744;7.086;2024-03-22T14:36:05;2.63;;;1.80;;
15764;SDS011;7983;50.744;7.086;2024-03-22T14:38:31;3.53;;;2.30;;
15764;SDS011;7983;50.744;7.086;2024-03-22T14:40:57;3.33;;;2.45;;
15764;SDS011;7983;50.744;7.086;2024-03-22T14:43:27;4.22;;;2.85;;
15764;SDS011;7983;50.744;7.086;2024-03-22T14:45:53;3.42;;;2.67;;
15764;SDS011;7983;50.744;7.086;2024-03-22T14:48:23;3.80;;;3.05;;
15764;SDS011;7983;50.744;7.086;2024-03-22T14:50:49;4.25;;;3.08;;
15764;SDS011;7983;50.744;7.086;2024-03-22T14:53:18;4.40;;;2.92;;
15764;SDS011;7983;50.744;7.086;2024-03-22T14:56:18;4.13;;;2.83;;
15764;SDS011;7983;50.744;7.086;2024-03-22T14:58:38;4.88;;;3.08;;
15764;SDS011;7983;50.744;7.086;2024-03-22T15:01:07;5.22;;;3.40;;
15764;SDS011;7983;50.744;7.086;2024-03-22T15:03:34;5.50;;;3.42;;